Terminal Aerodrome Forecast
Issued by NWS

Home | Current Version | Previous Version | Text Only | Print | Product List | Glossary On
Versions: 1 2 3 4 5 6 7 8 9 10 11 12 13 14
363
FTUS43 KAPX 221127
TAFTVC
TAF
KTVC 221127Z 2212/2312 31008KT P6SM -SHSN SCT025 OVC035
     FM221800 26007KT P6SM BKN040
     FM222200 23006KT P6SM BKN050=

USA.gov is the U.S. government's official web portal to all federal, state and local government web resources and services.